Aberdeen, New Jersey
Current Conditions -  °F | °C
As of 4:35 PM on Friday 24 Oct 2014 (Local Time) from KLDJ Reporting Station
Broken Clouds Broken Clouds  
Wind Chill: 72°   Ceiling: 5500
Heat Index: 72°   Visibility: 10mi
Dew Point: 46°   Wind: 8mph
Humidity: 39%   Direction: 350°N
Pressure: 29.78"   Gusts: NA
Location:  40.4118°N, 74.2499°W
Report Text: KLDJ 242035Z AUTO 35007KT 10SM BKN055 22/08 A2978 RMK AO2 T02230076
Loading
Personal Weather Stations






























Interactive Weather Map
Tropical Storm Tracking
New forecast layout! Learn more

10-Day Weather Forecast

Advertisements
Track Severe Weather on mobile